Strasburg, Pennsylvania
Current Conditions -  °F | °C
As of 8:53 AM on Thursday 29 Jan 2015 (Local Time) from KLNS Reporting Station
Haze Haze  
Wind Chill: 13°   Ceiling: Unl
Heat Index: 13°   Visibility: 4mi
Dew Point:   Wind: 0mph
Humidity: 74%   Direction: NA
Pressure: 30.29"   Gusts: NA
Location:  39.98°N, 76.18°W
Report Text: KLNS 291353Z 00000KT 4SM HZ CLR M11/M14 A3029 RMK AO2 SLP263 T11061144
Loading
Personal Weather Stations






























Interactive Weather Map New forecast layout! Learn more

10-Day Weather Forecast

Advertisements
Track Severe Weather on mobile